Impacts TAF Board
For situational awareness. Not to be used for flight planning purposes.
IDs:

KDTW - Detroit Metro/Wayne, MI, US

Issued at 1738 UTC 12 Dec 2018
Updated at 1953 UTC 12 Dec 2018
Potential Impact None Slight Moderate High
Time1853Z 12/20Z 12/21Z 12/22Z 12/23Z 13/00Z 13/01Z 13/02Z 13/03Z 13/04Z 13/05Z 13/06Z 13/07Z 13/08Z>>
Type OBS PRVL PRVL PRVL PRVL PRVL PRVL
  [TEMP]  
PRVL
  [TEMP]  
PRVL
  [TEMP]  
PRVL PRVL PRVL PRVL PRVL
VIS 4 6 >6 >6 >6 >6 5
  [5]  
5
  [5]  
5
  [5]  
>6 >6 >6 >6 >6
CIG 85 90 50 50 50 50 20
  [12]  
20
  [12]  
20
  [12]  
12 12 12 12 12
Cover OVC BKN OVC OVC OVC OVC OVC
  [OVC]  
OVC
  [OVC]  
OVC
  [OVC]  
OVC OVC OVC OVC OVC
FltCat MVFR VFR VFR VFR VFR VFR MVFR
  [MVFR]  
MVFR
  [MVFR]  
MVFR
  [MVFR]  
MVFR MVFR MVFR MVFR MVFR
WX HZ HZ -- -- -- -- BR
  [-RA BR]  
BR
  [-RA BR]  
BR
  [-RA BR]  
-- -- -- -- --
WDir 130 140 150 150 150 150 180
[180]
180
[180]
180
[180]
240 240 240 240 240
WSpd 9 11 9 9 9 9 8
  [8]  
8
  [8]  
8
  [8]  
5 5 5 5 5
WGst -- -- -- -- -- -- --
  [--]  
--
  [--]  
--
  [--]  
-- -- -- -- --
Raw TAF
KDTW 121738Z 1218/1324 14011KT 6SM HZ BKN090
  FM122100 15009KT P6SM SCT025 OVC050
  FM130100 18008KT 5SM BR OVC020
  TEMPO 1301/1304 5SM -RA BR OVC012
  FM130400 24005KT P6SM BKN012 OVC025
  FM131400 20005KT P6SM SCT025 BKN150


Raw METAR
KDTW 121853Z 13009KT 4SM HZ OVC085 03/M04 A2989 RMK AO2 SLP128 T00331039
KDTW 121753Z 14009KT 5SM HZ FEW050 SCT140 BKN230 04/M03 A2991 RMK AO2 SLP137 T00391033 10039 21028 58029
KDTW 121653Z 13011G16KT 4SM HZ BKN050 BKN140 OVC230 03/M03 A2994 RMK AO2 SLP147 T00281033

METAR Board
Radar Display
Forecast Discussion
For situational awareness. Not to be used for flight planning purposes.